Terminal Aerodrome Forecast
Issued by NWS Jacksonville, FL

Home | Current Version | Previous Version | Text Only | Print | Product List | Glossary On
Versions: 1 2 3 4 5 6 7 8 9 10 11 12 13 14 15 16 17 18
000
FTUS42 KJAX 220300 AAA
TAFSSI
TAF AMD
KSSI 220326Z 2203/2224 02010KT 6SM BR VCSH OVC004
     FM220600 01006KT 2SM SHRA BR OVC002
      TEMPO 2208/2212 1/2SM RA
     FM221800 06006KT 5SM BR VCSH OVC005=

USA.gov is the U.S. government's official web portal to all federal, state and local government web resources and services.